Time;durP1;ratioP1;P1;durP2;ratioP2;P2;SDS_P1;SDS_P2;PMS_P1;PMS_P2;Temp;Humidity;BMP_temperature;BMP_pressure;BME280_temperature;BME280_humidity;BME280_pressure;Samples;Min_cycle;Max_cycle;Signal;HPM_P1;HPM_P2
2023/07/05 00:01:07;;;;;;;0.10;0.10;;;;;;;16.43;58.76;97161.47;5040791;28;20044;-74
2023/07/05 00:03:37;;;;;;;0.10;0.10;;;;;;;16.41;58.67;97156.31;5041303;28;20080;-74
2023/07/05 00:06:05;;;;;;;0.10;0.10;;;;;;;16.31;59.07;97158.00;5040913;28;20053;-75
2023/07/05 00:08:34;;;;;;;0.00;0.00;;;;;;;16.56;57.86;97149.56;5041529;28;20071;-74
2023/07/05 00:11:03;;;;;;;0.05;0.05;;;;;;;16.59;57.75;97146.41;5041625;28;20045;-75
2023/07/05 00:13:30;;;;;;;0.20;0.20;;;;;;;16.52;57.88;97144.66;5041511;28;20388;-74
2023/07/05 00:15:59;;;;;;;0.10;0.10;;;;;;;16.54;57.77;97141.72;5040218;28;20041;-74
2023/07/05 00:18:28;;;;;;;0.17;0.17;;;;;;;16.51;57.88;97142.19;5042205;28;20121;-75
2023/07/05 00:20:59;;;;;;;0.15;0.15;;;;;;;16.65;57.32;97148.13;5041627;28;20045;-74
2023/07/05 00:23:27;;;;;;;0.10;0.10;;;;;;;16.66;57.46;97144.38;5040754;28;20535;-75
2023/07/05 00:25:55;;;;;;;0.10;0.10;;;;;;;16.73;57.51;97137.75;5041668;28;20049;-73
2023/07/05 00:28:22;;;;;;;0.10;0.10;;;;;;;16.59;57.23;97138.31;5040404;28;20053;-72
2023/07/05 00:30:50;;;;;;;0.00;0.00;;;;;;;16.45;57.66;97125.16;5039133;28;20048;-73
2023/07/05 00:33:17;;;;;;;0.10;0.10;;;;;;;16.49;57.01;97123.63;5040412;28;20056;-73
2023/07/05 00:35:49;;;;;;;0.00;0.00;;;;;;;16.63;56.96;97124.13;5041979;28;20103;-72
2023/07/05 00:38:16;;;;;;;0.10;0.10;;;;;;;16.78;57.01;97123.56;5039889;28;20471;-72
2023/07/05 00:40:44;;;;;;;0.10;0.10;;;;;;;16.69;57.14;97125.84;5040219;28;20041;-72
2023/07/05 00:43:13;;;;;;;0.13;0.13;;;;;;;16.76;56.88;97113.03;5041711;28;20052;-74
2023/07/05 00:45:50;;;;;;;0.10;0.10;;;;;;;16.51;56.99;97113.38;5042056;28;20059;-74
2023/07/05 00:48:21;;;;;;;0.13;0.13;;;;;;;16.58;56.78;97113.25;5042176;28;20056;-73
2023/07/05 00:50:52;;;;;;;0.20;0.20;;;;;;;16.47;55.92;97100.66;5040607;28;20112;-74
2023/07/05 00:53:20;;;;;;;0.05;0.05;;;;;;;16.59;55.68;97103.28;5041322;28;20055;-74
2023/07/05 00:55:51;;;;;;;0.10;0.10;;;;;;;16.63;55.42;97102.56;5041896;28;20559;-74
2023/07/05 00:58:19;;;;;;;0.10;0.10;;;;;;;16.55;55.70;97092.16;5056313;28;20045;-75
2023/07/05 01:00:48;;;;;;;0.10;0.10;;;;;;;16.50;55.91;97092.91;5038984;28;20047;-74
2023/07/05 01:03:20;;;;;;;0.10;0.10;;;;;;;16.68;55.52;97089.19;5041002;28;20045;-74
2023/07/05 01:05:52;;;;;;;0.00;0.00;;;;;;;16.57;55.83;97100.84;5041552;28;20034;-73
2023/07/05 01:08:21;;;;;;;0.10;0.10;;;;;;;16.46;55.90;97099.84;5043388;28;20520;-74
2023/07/05 01:10:55;;;;;;;0.10;0.10;;;;;;;16.41;56.21;97091.66;5040762;28;20412;-74
2023/07/05 01:13:29;;;;;;;0.00;0.00;;;;;;;16.53;55.72;97089.72;5040565;28;20045;-73
2023/07/05 01:16:03;;;;;;;0.10;0.10;;;;;;;16.52;55.87;97084.56;5040104;28;20046;-73
2023/07/05 01:18:37;;;;;;;0.10;0.10;;;;;;;16.53;56.08;97080.81;5040760;28;20049;-72
2023/07/05 01:21:10;;;;;;;0.00;0.00;;;;;;;16.60;56.79;97072.59;5039932;28;20053;-74
2023/07/05 01:23:50;;;;;;;0.00;0.00;;;;;;;16.64;56.48;97079.13;5041768;28;20124;-73
2023/07/05 01:26:47;;;;;;;0.10;0.10;;;;;;;16.55;56.73;97075.19;5040111;28;20457;-74
2023/07/05 01:29:35;;;;;;;0.10;0.10;;;;;;;16.49;57.21;97067.03;5039320;28;20041;-72
2023/07/05 01:32:07;;;;;;;0.20;0.20;;;;;;;16.56;56.97;97063.34;5039483;28;20064;-72
2023/07/05 01:34:39;;;;;;;0.00;0.00;;;;;;;16.39;57.39;97060.66;5043795;28;20051;-72
2023/07/05 01:37:09;;;;;;;0.10;0.10;;;;;;;16.58;56.60;97058.53;5040844;28;20128;-72
2023/07/05 01:39:37;;;;;;;0.10;0.10;;;;;;;16.59;56.12;97058.28;5040408;28;20072;-72
2023/07/05 01:42:05;;;;;;;0.00;0.00;;;;;;;16.62;56.08;97055.13;5040648;28;20067;-73
2023/07/05 01:44:33;;;;;;;0.10;0.10;;;;;;;16.63;55.77;97056.75;5056477;28;20045;-72
2023/07/05 01:47:08;;;;;;;0.10;0.10;;;;;;;16.66;55.71;97050.88;5039476;28;20055;-72
2023/07/05 01:49:42;;;;;;;0.40;0.10;;;;;;;16.54;56.05;97050.13;5040771;28;20060;-73
2023/07/05 01:52:13;;;;;;;0.00;0.00;;;;;;;16.59;55.88;97046.69;5040519;28;20039;-74
2023/07/05 01:54:43;;;;;;;;;;;;;;;16.63;55.86;97042.47;5039279;28;20090;-73
2023/07/05 01:57:13;;;;;;;0.10;0.10;;;;;;;16.77;55.47;97044.56;5041892;28;20423;-73
2023/07/05 01:59:42;;;;;;;0.10;0.10;;;;;;;16.91;55.43;97036.97;5042592;28;20048;-73
2023/07/05 02:02:13;;;;;;;0.10;0.10;;;;;;;16.68;55.71;97037.97;5059958;28;20048;-72
2023/07/05 02:04:41;;;;;;;0.10;0.10;;;;;;;16.68;56.46;97045.25;5043462;28;20038;-72
2023/07/05 02:07:08;;;;;;;0.05;0.05;;;;;;;16.69;56.00;97036.91;5044440;28;20405;-72
2023/07/05 02:09:37;;;;;;;0.10;0.10;;;;;;;16.67;56.11;97038.22;5046538;28;20075;-74
2023/07/05 02:12:05;;;;;;;0.10;0.10;;;;;;;16.72;56.20;97028.31;5044867;28;20075;-74
2023/07/05 02:14:33;;;;;;;0.10;0.10;;;;;;;16.63;56.48;97021.72;5044058;28;20420;-74
2023/07/05 02:17:01;;;;;;;0.15;0.15;;;;;;;16.57;56.41;97019.19;5043690;28;20037;-73
2023/07/05 02:19:30;;;;;;;0.10;0.10;;;;;;;16.64;56.16;97011.75;5059767;28;20045;-73
2023/07/05 02:22:02;;;;;;;0.10;0.10;;;;;;;16.72;55.93;97020.22;5043743;28;20228;-73
2023/07/05 02:24:30;;;;;;;0.10;0.10;;;;;;;16.61;56.21;97018.41;5043171;28;20082;-73
2023/07/05 02:26:57;;;;;;;0.00;0.00;;;;;;;16.60;56.33;97008.72;5043080;28;20460;-74
2023/07/05 02:29:25;;;;;;;0.10;0.10;;;;;;;16.54;56.28;96998.94;5041875;28;20468;-72
2023/07/05 02:31:53;;;;;;;0.10;0.10;;;;;;;16.67;56.21;97006.69;5043886;28;20250;-73
2023/07/05 02:34:20;;;;;;;0.10;0.10;;;;;;;16.63;56.17;96996.66;5044704;28;20045;-72
2023/07/05 02:36:49;;;;;;;0.10;0.10;;;;;;;16.72;55.79;96987.88;5043639;28;20044;-72
2023/07/05 02:39:17;;;;;;;0.00;0.00;;;;;;;16.55;56.26;96986.28;5044355;28;20055;-73
2023/07/05 02:41:44;;;;;;;0.00;0.00;;;;;;;16.59;56.18;96988.22;5043902;28;20041;-73
2023/07/05 02:44:12;;;;;;;0.10;0.10;;;;;;;16.56;56.14;96983.34;5044346;28;20077;-75
2023/07/05 02:46:39;;;;;;;0.00;0.00;;;;;;;16.60;55.98;96983.66;5043735;28;20365;-73
2023/07/05 02:49:07;;;;;;;0.10;0.10;;;;;;;16.58;56.16;96980.41;5043231;28;20480;-74
2023/07/05 02:51:35;;;;;;;0.10;0.10;;;;;;;16.39;56.40;96967.19;5043686;28;20037;-74
2023/07/05 02:54:03;;;;;;;0.20;0.20;;;;;;;16.48;56.28;96964.91;5044106;28;20420;-75
2023/07/05 02:56:31;;;;;;;0.10;0.10;;;;;;;16.51;56.05;96959.81;5044430;28;20514;-74
2023/07/05 02:58:59;;;;;;;0.10;0.10;;;;;;;16.62;55.76;96960.00;5042349;28;20053;-74
2023/07/05 03:01:26;;;;;;;0.10;0.10;;;;;;;16.47;56.01;96953.31;5042087;28;20060;-74
2023/07/05 03:03:54;;;;;;;0.10;0.10;;;;;;;16.47;56.20;96953.31;5042312;28;20111;-74
2023/07/05 03:06:21;;;;;;;0.10;0.10;;;;;;;16.48;56.17;96952.25;5041185;28;20100;-74
2023/07/05 03:08:49;;;;;;;0.10;0.10;;;;;;;16.42;56.13;96947.84;5042057;28;20052;-74
2023/07/05 03:11:18;;;;;;;0.10;0.10;;;;;;;16.45;56.17;96949.22;5040940;28;20046;-74
2023/07/05 03:13:47;;;;;;;0.10;0.10;;;;;;;16.43;56.07;96945.94;5041670;28;20036;-74
2023/07/05 03:16:15;;;;;;;0.10;0.10;;;;;;;16.19;56.50;96949.91;5041417;28;20045;-74
2023/07/05 03:18:42;;;;;;;0.10;0.10;;;;;;;16.36;56.27;96948.00;5042973;28;20116;-74
2023/07/05 03:21:11;;;;;;;0.10;0.10;;;;;;;16.38;55.96;96953.97;5042261;28;20047;-74
2023/07/05 03:23:39;;;;;;;0.10;0.10;;;;;;;16.34;55.77;96950.13;5041207;28;20126;-74
2023/07/05 03:26:08;;;;;;;0.10;0.10;;;;;;;16.38;55.88;96940.50;5043134;28;20053;-73
2023/07/05 03:28:38;;;;;;;0.20;0.20;;;;;;;16.45;55.67;96952.72;5041058;28;20049;-73
2023/07/05 03:31:13;;;;;;;0.00;0.00;;;;;;;16.41;55.55;96942.69;5040247;28;20048;-72
2023/07/05 03:33:41;;;;;;;0.13;0.13;;;;;;;16.39;55.83;96937.56;5042172;28;20496;-71
2023/07/05 03:36:12;;;;;;;0.10;0.10;;;;;;;16.41;55.41;96937.31;5041890;28;20052;-72
2023/07/05 03:38:40;;;;;;;0.13;0.13;;;;;;;16.42;55.61;96947.84;5042397;28;20432;-72
2023/07/05 03:41:10;;;;;;;0.00;0.00;;;;;;;16.45;55.46;96938.44;5041838;28;20045;-73
2023/07/05 03:43:39;;;;;;;0.10;0.10;;;;;;;16.49;55.17;96947.69;5057863;28;20045;-73
2023/07/05 03:46:09;;;;;;;0.00;0.00;;;;;;;16.55;55.08;96945.84;5041133;28;20045;-73
2023/07/05 03:48:39;;;;;;;0.00;0.00;;;;;;;16.52;55.15;96947.16;5042110;28;20048;-73
2023/07/05 03:51:07;;;;;;;0.13;0.13;;;;;;;16.53;55.10;96952.31;5041941;28;20121;-72
2023/07/05 03:53:35;;;;;;;0.15;0.10;;;;;;;16.59;54.90;96965.84;5041721;28;20048;-72
2023/07/05 03:56:05;;;;;;;0.00;0.00;;;;;;;16.55;54.91;96965.53;5042964;28;20037;-72
2023/07/05 03:58:33;;;;;;;0.10;0.10;;;;;;;16.48;54.71;96976.50;5042820;28;20120;-72
2023/07/05 04:01:08;;;;;;;0.10;0.10;;;;;;;16.46;54.83;96970.53;5041314;28;20072;-72
2023/07/05 04:03:36;;;;;;;0.10;0.10;;;;;;;16.45;55.35;96960.00;5041996;28;20049;-72
2023/07/05 04:06:05;;;;;;;0.10;0.10;;;;;;;16.46;55.44;96959.75;5042452;28;20033;-73
2023/07/05 04:08:32;;;;;;;0.10;0.10;;;;;;;16.45;55.37;96966.19;5042499;28;20038;-74
2023/07/05 04:11:00;;;;;;;0.10;0.10;;;;;;;16.51;55.60;96957.13;5041193;28;20485;-74
2023/07/05 04:13:27;;;;;;;0.10;0.10;;;;;;;16.55;55.56;96959.31;5040777;28;20056;-73
2023/07/05 04:15:59;;;;;;;0.10;0.10;;;;;;;16.60;55.22;96951.31;5041824;28;20049;-73
2023/07/05 04:18:28;;;;;;;;;;;;;;;16.64;55.15;96953.28;5041618;28;20129;-73
2023/07/05 04:20:56;;;;;;;0.10;0.10;;;;;;;16.75;55.15;96962.31;5042407;28;19924;-73
2023/07/05 04:23:24;;;;;;;0.10;0.10;;;;;;;16.81;55.00;96958.66;5040946;28;20049;-73
2023/07/05 04:25:58;;;;;;;0.10;0.10;;;;;;;16.87;54.99;96968.44;5041877;28;20052;-74
2023/07/05 04:28:26;;;;;;;0.00;0.00;;;;;;;16.88;55.17;96970.88;5040873;28;20116;-74
2023/07/05 04:30:54;;;;;;;0.10;0.10;;;;;;;16.94;55.26;96979.00;5039912;28;20052;-74
2023/07/05 04:33:22;;;;;;;0.10;0.10;;;;;;;16.94;55.55;96989.78;5042182;28;20370;-75
2023/07/05 04:35:53;;;;;;;0.10;0.10;;;;;;;16.93;55.63;96990.84;5042187;28;20112;-75
2023/07/05 04:38:21;;;;;;;0.00;0.00;;;;;;;17.02;56.00;97008.25;5041245;28;20508;-73
2023/07/05 04:40:48;;;;;;;0.10;0.10;;;;;;;17.10;55.63;96999.72;5041623;28;20476;-73
2023/07/05 04:43:16;;;;;;;0.15;0.15;;;;;;;17.13;55.67;97018.91;5041498;28;20045;-73
2023/07/05 04:45:49;;;;;;;0.10;0.10;;;;;;;17.10;56.10;97008.63;5042001;28;20595;-73
2023/07/05 04:48:17;;;;;;;0.10;0.10;;;;;;;17.19;55.78;97015.22;5043322;28;20082;-73
2023/07/05 04:50:45;;;;;;;0.10;0.10;;;;;;;17.21;55.67;97007.69;5040686;28;20124;-72
2023/07/05 04:53:14;;;;;;;0.00;0.00;;;;;;;17.22;55.94;97008.53;5042225;28;20045;-75
2023/07/05 04:55:45;;;;;;;0.10;0.10;;;;;;;17.36;56.02;97000.84;5041610;28;20053;-75
2023/07/05 04:58:12;;;;;;;0.13;0.13;;;;;;;17.34;55.93;97006.47;5040124;28;20040;-75
2023/07/05 05:00:40;;;;;;;0.10;0.10;;;;;;;17.44;56.05;97001.19;5040726;28;20111;-75
2023/07/05 05:03:07;;;;;;;0.00;0.00;;;;;;;17.57;55.96;97005.41;5041331;28;20111;-74
2023/07/05 05:05:35;;;;;;;0.10;0.10;;;;;;;17.59;55.92;97006.78;5044824;28;20041;-74
2023/07/05 05:08:02;;;;;;;0.13;0.13;;;;;;;17.61;56.04;96998.44;5040857;28;20356;-74
2023/07/05 05:10:31;;;;;;;0.00;0.00;;;;;;;17.69;56.32;97006.09;5042173;28;20045;-73
2023/07/05 05:12:59;;;;;;;0.00;0.00;;;;;;;17.66;56.53;96993.09;5041896;28;20037;-75
2023/07/05 05:15:26;;;;;;;0.10;0.10;;;;;;;17.71;56.63;97011.25;5042817;28;20574;-74
2023/07/05 05:17:54;;;;;;;0.10;0.10;;;;;;;17.78;57.16;97004.56;5042399;28;20425;-75
2023/07/05 05:20:22;;;;;;;0.10;0.10;;;;;;;17.85;57.16;97001.69;5041927;28;20053;-75
2023/07/05 05:22:49;;;;;;;0.10;0.10;;;;;;;17.96;57.17;97004.19;5042665;28;20400;-74
2023/07/05 05:25:18;;;;;;;0.10;0.10;;;;;;;17.98;57.35;97004.75;5044505;28;20056;-73
2023/07/05 05:27:47;;;;;;;0.10;0.10;;;;;;;18.05;57.51;96998.34;5042555;28;20038;-74
2023/07/05 05:30:14;;;;;;;0.40;0.40;;;;;;;18.12;57.58;97002.47;5037414;28;20566;-73
2023/07/05 05:32:42;;;;;;;0.13;0.13;;;;;;;18.21;57.42;97003.63;5040635;28;20040;-74
2023/07/05 05:35:10;;;;;;;0.00;0.00;;;;;;;18.30;57.34;96999.38;5043026;28;20099;-74
2023/07/05 05:37:38;;;;;;;0.10;0.10;;;;;;;18.34;57.38;96999.69;5044995;28;20049;-73
2023/07/05 05:40:07;;;;;;;0.00;0.00;;;;;;;18.34;57.92;97005.06;5045944;28;20055;-75
2023/07/05 05:42:35;;;;;;;0.10;0.10;;;;;;;18.29;58.12;96994.22;5044735;28;20489;-74
2023/07/05 05:45:05;;;;;;;0.00;0.00;;;;;;;18.23;58.52;96987.16;5044961;28;20047;-74
2023/07/05 05:47:33;;;;;;;0.20;0.20;;;;;;;18.17;58.76;96997.09;5045455;28;20041;-74
2023/07/05 05:50:00;;;;;;;0.10;0.10;;;;;;;18.17;58.24;96996.31;5045053;28;20071;-76
2023/07/05 05:52:28;;;;;;;0.10;0.10;;;;;;;18.15;58.59;96998.44;5044831;28;20045;-75
2023/07/05 05:54:56;;;;;;;0.00;0.00;;;;;;;18.14;58.46;97004.91;5046097;28;20412;-74
2023/07/05 05:57:23;;;;;;;0.00;0.00;;;;;;;18.13;58.59;96998.69;5044143;28;20513;-74
2023/07/05 05:59:52;;;;;;;0.00;0.00;;;;;;;18.14;58.38;96986.81;5044036;28;20056;-74
2023/07/05 06:02:21;;;;;;;0.10;0.10;;;;;;;18.14;58.95;96991.41;5044348;28;20045;-74
2023/07/05 06:04:48;;;;;;;0.00;0.00;;;;;;;18.14;59.97;96994.94;5043714;28;20055;-73
2023/07/05 06:07:16;;;;;;;0.08;0.08;;;;;;;18.09;61.42;96996.75;5045231;28;20037;-74
2023/07/05 06:09:44;;;;;;;0.10;0.10;;;;;;;18.01;62.64;96991.81;5044552;28;20044;-73
2023/07/05 06:12:12;;;;;;;0.10;0.10;;;;;;;17.89;63.99;96995.50;5044170;28;20154;-73
2023/07/05 06:14:40;;;;;;;0.10;0.10;;;;;;;17.76;64.31;96985.09;5044071;28;20045;-73
2023/07/05 06:17:08;;;;;;;0.10;0.10;;;;;;;17.66;65.11;96985.00;5042797;28;20156;-73
2023/07/05 06:19:37;;;;;;;0.00;0.00;;;;;;;17.50;66.83;96984.00;5041565;28;20057;-73
2023/07/05 06:22:05;;;;;;;0.00;0.00;;;;;;;17.40;67.27;96969.59;5043747;28;20493;-73
2023/07/05 06:24:33;;;;;;;0.00;0.00;;;;;;;17.33;67.85;96958.19;5043649;28;20127;-73
2023/07/05 06:27:01;;;;;;;0.10;0.10;;;;;;;17.25;68.02;96948.66;5043317;28;20045;-74
2023/07/05 06:29:28;;;;;;;0.03;0.03;;;;;;;17.24;69.01;96964.03;5041055;28;20137;-76
2023/07/05 06:31:56;;;;;;;0.10;0.10;;;;;;;17.21;70.52;96986.13;5043872;28;20047;-74
2023/07/05 06:34:24;;;;;;;0.00;0.00;;;;;;;17.09;70.64;96988.13;5044163;28;20135;-75
2023/07/05 06:36:53;;;;;;;0.10;0.10;;;;;;;17.12;70.47;96982.25;5044977;28;20055;-74
2023/07/05 06:39:21;;;;;;;0.00;0.00;;;;;;;17.04;70.45;96993.44;5047199;28;20057;-74
2023/07/05 06:41:48;;;;;;;0.10;0.10;;;;;;;17.05;71.12;96999.66;5052743;28;20059;-73
2023/07/05 06:44:16;;;;;;;0.10;0.10;;;;;;;17.01;71.78;97001.22;5049831;28;20053;-72
2023/07/05 06:46:43;;;;;;;0.10;0.10;;;;;;;16.96;72.07;96999.28;5048598;28;20045;-74
2023/07/05 06:49:11;;;;;;;0.00;0.00;;;;;;;16.97;71.97;96987.44;5049818;28;20041;-71
2023/07/05 06:51:39;;;;;;;0.10;0.10;;;;;;;16.97;72.08;96981.22;5050524;28;20106;-71
2023/07/05 06:54:07;;;;;;;0.10;0.10;;;;;;;16.92;71.99;96976.59;5046388;28;20087;-71
2023/07/05 06:56:35;;;;;;;0.00;0.00;;;;;;;16.98;72.29;96983.66;5046260;28;20063;-72
2023/07/05 06:59:03;;;;;;;0.20;0.05;;;;;;;17.05;72.14;96978.91;5048797;28;20069;-71
2023/07/05 07:01:31;;;;;;;0.10;0.10;;;;;;;17.00;72.32;96992.31;5048215;28;20049;-73
2023/07/05 07:03:58;;;;;;;0.00;0.00;;;;;;;17.06;72.46;96982.41;5046890;28;20049;-72
2023/07/05 07:06:26;;;;;;;0.20;0.20;;;;;;;17.05;72.66;96989.69;5047043;28;20103;-71
2023/07/05 07:08:54;;;;;;;0.05;0.05;;;;;;;17.09;72.10;96985.44;5046143;28;20044;-72
2023/07/05 07:11:23;;;;;;;0.03;0.03;;;;;;;17.10;72.52;96994.34;5044406;28;20365;-72
2023/07/05 07:13:50;;;;;;;0.00;0.00;;;;;;;17.15;71.49;96970.94;5042880;28;20049;-72
2023/07/05 07:16:18;;;;;;;0.10;0.10;;;;;;;17.20;72.16;97011.47;5044426;28;20052;-72
2023/07/05 07:18:47;;;;;;;0.10;0.10;;;;;;;17.23;70.60;96999.38;5043305;28;20033;-72
2023/07/05 07:21:16;;;;;;;0.08;0.08;;;;;;;17.28;70.75;97002.09;5044346;28;20045;-71
2023/07/05 07:23:46;;;;;;;0.10;0.10;;;;;;;17.34;70.59;97009.19;5043632;28;20057;-72
2023/07/05 07:26:17;;;;;;;0.10;0.10;;;;;;;17.36;70.47;97006.22;5042943;28;20071;-72
2023/07/05 07:28:48;;;;;;;0.10;0.10;;;;;;;17.44;70.55;97003.13;5042469;28;20056;-71
2023/07/05 07:31:19;;;;;;;0.10;0.10;;;;;;;17.48;70.51;96999.63;5042470;28;20041;-71
2023/07/05 07:33:47;;;;;;;0.10;0.10;;;;;;;17.65;70.04;96998.78;5042709;28;20107;-72
2023/07/05 07:36:17;;;;;;;0.10;0.10;;;;;;;17.73;69.13;97011.81;5044813;28;20386;-74
2023/07/05 07:38:44;;;;;;;0.13;0.13;;;;;;;17.83;68.99;96995.72;5043736;28;20041;-72
2023/07/05 07:41:14;;;;;;;0.00;0.00;;;;;;;17.97;68.76;96999.63;5041291;28;20488;-73
2023/07/05 07:43:41;;;;;;;0.10;0.10;;;;;;;18.06;67.88;96991.88;5044647;28;20511;-71
2023/07/05 07:46:12;;;;;;;0.10;0.10;;;;;;;18.10;68.32;96991.09;5043641;28;20051;-71
2023/07/05 07:48:41;;;;;;;0.15;0.15;;;;;;;18.20;67.79;97001.16;5042195;28;20091;-72
2023/07/05 07:51:09;;;;;;;0.10;0.10;;;;;;;18.26;67.72;96994.75;5043341;28;20050;-72
2023/07/05 07:53:54;;;;;;;0.03;0.03;;;;;;;18.32;67.78;97008.03;5043716;28;20041;-72
2023/07/05 07:56:23;;;;;;;0.10;0.10;;;;;;;18.36;67.80;97002.13;5043398;28;20055;-72
2023/07/05 07:58:53;;;;;;;0.10;0.10;;;;;;;18.41;67.80;96999.44;5043487;28;20041;-72
2023/07/05 08:01:24;;;;;;;0.10;0.10;;;;;;;18.43;68.09;97000.00;5041450;28;20049;-72
2023/07/05 08:03:52;;;;;;;0.10;0.10;;;;;;;18.49;68.51;97001.66;5042767;28;20401;-72
2023/07/05 08:06:20;;;;;;;0.00;0.00;;;;;;;18.56;68.40;97003.09;5044274;28;20053;-72
2023/07/05 08:08:48;;;;;;;0.00;0.00;;;;;;;18.64;68.04;97002.63;5040691;28;20041;-72
2023/07/05 08:11:15;;;;;;;0.00;0.00;;;;;;;18.66;67.84;97008.59;5043832;28;20037;-71
2023/07/05 08:13:48;;;;;;;0.10;0.10;;;;;;;18.73;67.72;97000.25;5041878;28;20053;-73
2023/07/05 08:16:17;;;;;;;0.10;0.10;;;;;;;18.76;67.63;97009.72;5042467;28;20128;-72
2023/07/05 08:18:46;;;;;;;0.00;0.00;;;;;;;18.85;67.59;97010.84;5042050;28;20076;-72
2023/07/05 08:21:14;;;;;;;0.10;0.10;;;;;;;18.90;67.00;97027.09;5042927;28;20048;-73
2023/07/05 08:23:42;;;;;;;0.00;0.00;;;;;;;18.95;66.99;97011.72;5042235;28;20045;-72
2023/07/05 08:26:10;;;;;;;0.00;0.00;;;;;;;18.98;66.83;97018.50;5041513;28;20053;-73
2023/07/05 08:28:38;;;;;;;0.28;0.28;;;;;;;18.94;66.43;97010.09;5041839;28;20382;-72
2023/07/05 08:31:06;;;;;;;0.10;0.10;;;;;;;18.96;66.90;97009.84;5041284;28;20052;-72
2023/07/05 08:33:36;;;;;;;0.10;0.10;;;;;;;18.98;66.93;97000.41;5040431;28;20049;-73
2023/07/05 08:36:10;;;;;;;0.10;0.10;;;;;;;19.02;66.61;97001.47;5042278;28;20139;-71
2023/07/05 08:38:39;;;;;;;0.30;0.15;;;;;;;19.05;66.73;97002.84;5040979;28;20037;-71
2023/07/05 08:41:16;;;;;;;0.00;0.00;;;;;;;19.05;66.33;96989.31;5041580;28;20041;-72
2023/07/05 08:43:47;;;;;;;0.10;0.10;;;;;;;19.03;66.27;96983.34;5041370;28;20049;-72
2023/07/05 08:46:15;;;;;;;0.10;0.10;;;;;;;19.14;65.87;96993.16;5040822;28;20049;-73
2023/07/05 08:48:44;;;;;;;0.03;0.03;;;;;;;19.23;65.29;96993.44;5040858;28;20123;-72
2023/07/05 08:51:13;;;;;;;0.13;0.13;;;;;;;19.35;65.12;97000.28;5040802;28;20128;-72
2023/07/05 08:53:47;;;;;;;0.10;0.10;;;;;;;19.38;64.39;96991.63;5041399;28;20045;-72
2023/07/05 08:56:21;;;;;;;0.10;0.10;;;;;;;19.50;64.55;96990.63;5043855;28;20190;-74
2023/07/05 08:58:56;;;;;;;0.10;0.10;;;;;;;19.53;63.75;96996.31;5041852;28;20033;-73
2023/07/05 09:01:26;;;;;;;0.10;0.10;;;;;;;19.55;63.36;97004.97;5040372;28;20360;-72
2023/07/05 09:03:54;;;;;;;0.00;0.00;;;;;;;19.52;63.11;97000.09;5042479;28;20053;-73
2023/07/05 09:06:24;;;;;;;0.00;0.00;;;;;;;19.57;62.97;97002.81;5044990;28;20455;-72
2023/07/05 09:09:11;;;;;;;0.08;0.08;;;;;;;19.63;62.88;97003.63;5047987;28;20381;-73
2023/07/05 09:11:46;;;;;;;0.08;0.08;;;;;;;19.66;63.05;97005.81;5041490;28;20029;-73
2023/07/05 09:14:21;;;;;;;0.08;0.08;;;;;;;19.62;63.94;97007.44;5050164;28;20048;-73
2023/07/05 09:16:55;;;;;;;0.00;0.00;;;;;;;19.54;64.94;97010.66;5047381;28;20069;-73
2023/07/05 09:19:31;;;;;;;0.10;0.10;;;;;;;19.44;65.56;97038.47;5046003;28;20120;-73
2023/07/05 09:22:04;;;;;;;0.20;0.20;;;;;;;19.37;66.40;97041.44;5040921;28;20043;-72
2023/07/05 09:24:34;;;;;;;0.20;0.20;;;;;;;19.35;65.85;97032.75;5048537;28;20103;-73
2023/07/05 09:27:05;;;;;;;0.10;0.10;;;;;;;19.32;66.28;97035.97;5044792;28;20124;-73
2023/07/05 09:29:37;;;;;;;0.20;0.20;;;;;;;19.29;66.02;97038.41;5045002;28;20049;-73
2023/07/05 09:32:10;;;;;;;0.08;0.08;;;;;;;19.21;65.98;97031.59;5047527;28;20067;-74
2023/07/05 09:34:42;;;;;;;0.00;0.00;;;;;;;19.12;65.68;97032.38;5044266;28;20477;-74
2023/07/05 09:37:17;;;;;;;0.35;0.35;;;;;;;18.99;66.05;97036.38;5049960;28;20574;-73
2023/07/05 09:39:54;;;;;;;0.08;0.08;;;;;;;19.06;65.99;97037.75;5042059;28;20045;-74
2023/07/05 09:42:25;;;;;;;0.10;0.10;;;;;;;19.14;66.10;97046.44;5045832;28;20055;-74
2023/07/05 09:44:53;;;;;;;0.10;0.10;;;;;;;19.13;65.97;97048.34;5046524;28;20055;-73
2023/07/05 09:47:22;;;;;;;0.17;0.17;;;;;;;19.05;65.88;97048.84;5040937;28;20488;-74
2023/07/05 09:49:50;;;;;;;0.10;0.10;;;;;;;19.01;66.41;97056.66;5050313;28;20048;-74
2023/07/05 09:52:23;;;;;;;0.10;0.10;;;;;;;19.02;65.96;97060.19;5047983;28;20049;-73
2023/07/05 09:54:54;;;;;;;0.10;0.10;;;;;;;18.98;65.78;97059.09;5068374;28;20044;-74
2023/07/05 09:57:24;;;;;;;0.10;0.10;;;;;;;18.91;66.15;97069.31;5057416;28;20051;-74
2023/07/05 09:59:52;;;;;;;0.00;0.00;;;;;;;18.87;66.43;97062.81;5060785;28;20132;-74
2023/07/05 10:02:23;;;;;;;0.08;0.08;;;;;;;18.76;66.70;97101.66;5047497;28;20045;-73
2023/07/05 10:04:53;;;;;;;0.08;0.08;;;;;;;18.74;67.03;97096.50;5046530;28;20051;-74
2023/07/05 10:07:24;;;;;;;0.10;0.10;;;;;;;18.80;67.20;97094.66;5048607;28;20408;-74
2023/07/05 10:10:01;;;;;;;0.10;0.10;;;;;;;18.83;67.30;97086.03;5046628;28;20048;-74
2023/07/05 10:12:34;;;;;;;0.00;0.00;;;;;;;18.88;67.18;97097.72;5056540;28;20127;-75
2023/07/05 10:15:02;;;;;;;0.00;0.00;;;;;;;18.95;67.13;97098.28;5050482;28;20496;-73
2023/07/05 10:17:41;;;;;;;0.10;0.10;;;;;;;18.88;67.25;97095.00;5048611;28;20064;-73
2023/07/05 10:20:19;;;;;;;0.00;0.00;;;;;;;18.83;67.43;97091.44;5046448;28;20072;-74
2023/07/05 10:22:48;;;;;;;0.10;0.10;;;;;;;18.76;66.35;97101.66;5047561;28;20140;-74
2023/07/05 10:25:18;;;;;;;0.05;0.05;;;;;;;18.81;66.48;97097.09;5053470;28;20045;-73
2023/07/05 10:27:48;;;;;;;0.10;0.10;;;;;;;18.81;66.99;97104.38;5049542;28;20041;-75
2023/07/05 10:30:18;;;;;;;0.00;0.00;;;;;;;18.64;67.76;97088.31;5053365;28;20072;-73
2023/07/05 10:32:49;;;;;;;0.30;0.30;;;;;;;18.65;67.88;97095.34;5051795;28;20487;-73
2023/07/05 10:35:22;;;;;;;0.00;0.00;;;;;;;18.74;67.78;97093.00;5048445;28;20496;-74
2023/07/05 10:37:52;;;;;;;0.10;0.10;;;;;;;18.79;66.78;97084.94;5046020;28;20040;-73
2023/07/05 10:40:21;;;;;;;0.10;0.10;;;;;;;18.78;65.59;97086.00;5055313;28;20037;-73
2023/07/05 10:42:51;;;;;;;0.10;0.10;;;;;;;18.76;65.53;97088.16;5053927;28;20041;-73
2023/07/05 10:45:20;;;;;;;0.10;0.00;;;;;;;18.84;65.39;97095.78;5053621;28;20043;-73
2023/07/05 10:47:52;;;;;;;0.10;0.10;;;;;;;18.78;65.11;97070.59;5053608;28;20057;-74
2023/07/05 10:50:27;;;;;;;0.00;0.00;;;;;;;18.85;65.16;97089.28;5053170;28;20504;-74
2023/07/05 10:52:59;;;;;;;0.00;0.00;;;;;;;18.84;65.32;97096.59;5049615;28;20045;-73
2023/07/05 10:55:31;;;;;;;;;;;;;;;18.99;65.25;97098.59;5054381;28;20076;-73
2023/07/05 10:58:04;;;;;;;0.00;0.00;;;;;;;19.01;64.93;97075.59;5051288;28;20372;-73
2023/07/05 11:00:37;;;;;;;0.10;0.10;;;;;;;19.20;64.76;97083.31;5045763;28;20378;-72
2023/07/05 11:03:11;;;;;;;0.10;0.10;;;;;;;19.19;64.59;97079.78;5046016;28;20523;-73
2023/07/05 11:05:42;;;;;;;0.13;0.13;;;;;;;19.34;64.35;97081.72;5053360;28;20147;-75
2023/07/05 11:08:17;;;;;;;0.00;0.00;;;;;;;19.38;63.89;97075.53;5049173;28;20076;-74
2023/07/05 11:10:45;;;;;;;0.10;0.10;;;;;;;19.39;62.95;97079.06;5045402;28;20044;-74
2023/07/05 11:13:14;;;;;;;0.10;0.10;;;;;;;19.19;62.96;97077.06;5048283;28;20434;-73
2023/07/05 11:15:42;;;;;;;0.10;0.10;;;;;;;19.20;63.19;97076.00;5053285;28;20049;-75
2023/07/05 11:18:14;;;;;;;0.00;0.00;;;;;;;19.39;62.98;97081.78;5051137;28;20041;-73
2023/07/05 11:20:48;;;;;;;0.10;0.10;;;;;;;19.62;61.81;97069.72;5044920;28;20140;-73
2023/07/05 11:23:54;;;;;;;0.10;0.10;;;;;;;19.88;61.30;97068.72;5050900;28;20404;-73
2023/07/05 11:26:34;;;;;;;0.00;0.00;;;;;;;20.14;60.64;97064.97;5046155;28;20045;-73
2023/07/05 11:29:02;;;;;;;0.10;0.10;;;;;;;20.14;60.54;97066.91;5047521;28;20041;-74
2023/07/05 11:31:59;;;;;;;0.05;0.05;;;;;;;20.28;60.04;97069.88;5058931;28;20040;-74
2023/07/05 11:34:34;;;;;;;0.00;0.00;;;;;;;20.16;60.09;97075.53;5044678;28;20049;-74
2023/07/05 11:37:51;;;;;;;0.08;0.08;;;;;;;20.17;59.44;97077.19;5044701;28;20054;-73
2023/07/05 11:40:57;;;;;;;0.00;0.00;;;;;;;20.21;57.88;97069.34;4988772;28;20138;-73
2023/07/05 11:43:26;;;;;;;0.05;0.05;;;;;;;20.22;57.89;97071.78;5050026;28;20060;-73
2023/07/05 11:45:53;;;;;;;0.00;0.00;;;;;;;20.19;57.22;97074.19;5052524;28;20037;-74
2023/07/05 11:48:42;;;;;;;0.10;0.10;;;;;;;20.25;57.05;97067.69;5050016;28;20119;-74